createdAt,value
2019-03-01T00:01:07.334Z,9.53
2019-03-01T00:03:36.767Z,13.23
2019-03-01T00:06:42.193Z,11.87
2019-03-01T00:09:48.875Z,12.50
2019-03-01T00:13:20.008Z,13.90
2019-03-01T00:16:37.471Z,13.77
2019-03-01T00:19:29.394Z,12.17
2019-03-01T00:22:33.210Z,11.60
2019-03-01T00:25:23.392Z,12.33
2019-03-01T00:28:21.251Z,12.50
2019-03-01T00:31:17.653Z,13.03
2019-03-01T00:33:55.750Z,12.53
2019-03-01T00:37:02.946Z,13.10
2019-03-01T00:39:55.975Z,14.00
2019-03-01T00:43:10.988Z,13.27
2019-03-01T00:45:40.513Z,12.23
2019-03-01T00:48:10.052Z,13.50
2019-03-01T00:50:39.571Z,12.47
2019-03-01T00:53:09.330Z,12.83
2019-03-01T00:55:39.044Z,13.83
2019-03-01T00:58:08.537Z,13.53
2019-03-01T01:00:41.707Z,13.73
2019-03-01T01:03:11.194Z,14.37
2019-03-01T01:05:40.576Z,13.30
2019-03-01T01:08:10.059Z,12.73
2019-03-01T01:10:39.489Z,12.60
2019-03-01T01:13:08.865Z,16.17
2019-03-01T01:15:38.300Z,15.13
2019-03-01T01:18:08.649Z,14.30
2019-03-01T01:20:38.548Z,15.10
2019-03-01T01:23:08.584Z,15.60
2019-03-01T01:25:38.154Z,14.57
2019-03-01T01:28:07.540Z,15.60
2019-03-01T01:30:37.224Z,15.27
2019-03-01T01:33:06.595Z,14.23
2019-03-01T01:35:36.089Z,16.80
2019-03-01T01:38:05.492Z,16.70
2019-03-01T01:40:34.960Z,17.47
2019-03-01T01:43:04.340Z,16.77
2019-03-01T01:45:33.853Z,16.40
2019-03-01T01:48:03.355Z,16.27
2019-03-01T01:50:32.812Z,16.23
2019-03-01T01:53:02.173Z,16.23
2019-03-01T01:55:31.552Z,18.13
2019-03-01T01:58:00.963Z,16.13
2019-03-01T02:00:30.459Z,18.13
2019-03-01T02:02:59.868Z,16.67
2019-03-01T02:05:29.298Z,16.43
2019-03-01T02:07:58.706Z,14.30
2019-03-01T02:10:28.174Z,16.87
2019-03-01T02:12:57.846Z,15.83
2019-03-01T02:15:27.392Z,15.40
2019-03-01T02:17:57.872Z,15.70
2019-03-01T02:20:28.241Z,16.73
2019-03-01T02:22:58.593Z,16.03
2019-03-01T02:25:28.761Z,15.67
2019-03-01T02:27:58.362Z,15.40
2019-03-01T02:30:28.341Z,15.80
2019-03-01T02:32:57.913Z,14.70
2019-03-01T02:35:28.840Z,15.80
2019-03-01T02:37:58.338Z,15.87
2019-03-01T02:40:27.839Z,15.60
2019-03-01T02:42:57.301Z,16.57
2019-03-01T02:45:26.777Z,17.27
2019-03-01T02:47:56.281Z,17.57
2019-03-01T02:50:26.077Z,20.00
2019-03-01T02:52:55.522Z,18.07
2019-03-01T02:55:25.235Z,16.77
2019-03-01T02:57:55.728Z,18.23
2019-03-01T03:00:29.098Z,18.77
2019-03-01T03:02:58.555Z,19.03
2019-03-01T03:05:28.083Z,17.60
2019-03-01T03:08:02.236Z,20.37
2019-03-01T03:10:32.167Z,18.10
2019-03-01T03:13:07.659Z,19.67
2019-03-01T03:15:39.619Z,18.47
2019-03-01T03:18:09.485Z,20.13
2019-03-01T03:20:41.074Z,20.00
2019-03-01T03:23:13.164Z,18.40
2019-03-01T03:25:49.843Z,17.33
2019-03-01T03:28:27.877Z,18.87
2019-03-01T03:31:04.015Z,19.67
2019-03-01T03:33:36.643Z,18.73
2019-03-01T03:36:07.590Z,20.93
2019-03-01T03:38:37.041Z,22.50
2019-03-01T03:41:07.111Z,22.53
2019-03-01T03:43:37.194Z,18.40
2019-03-01T03:46:06.557Z,18.27
2019-03-01T03:48:36.352Z,19.57
2019-03-01T03:51:06.674Z,21.50
2019-03-01T03:53:36.138Z,20.30
2019-03-01T03:56:05.608Z,19.33
2019-03-01T03:58:34.963Z,20.50
2019-03-01T04:01:04.563Z,19.03
2019-03-01T04:03:33.935Z,16.70
2019-03-01T04:06:03.408Z,17.57
2019-03-01T04:08:32.798Z,17.57
2019-03-01T04:11:02.241Z,17.40
2019-03-01T04:13:32.763Z,17.73
2019-03-01T04:16:03.087Z,16.57
2019-03-01T04:18:34.635Z,17.43
2019-03-01T04:21:04.493Z,17.20
2019-03-01T04:23:40.066Z,18.93
2019-03-01T04:26:20.202Z,17.60
2019-03-01T04:28:59.959Z,18.27
2019-03-01T04:31:37.138Z,18.87
2019-03-01T04:34:15.679Z,17.97
2019-03-01T04:36:52.785Z,17.73
2019-03-01T04:39:30.263Z,17.93
2019-03-01T04:42:09.109Z,18.50
2019-03-01T04:44:47.750Z,17.27
2019-03-01T04:47:24.823Z,18.33
2019-03-01T04:50:03.516Z,17.50
2019-03-01T04:52:43.873Z,17.77
2019-03-01T04:55:25.808Z,17.97
2019-03-01T04:57:56.814Z,18.90
2019-03-01T05:00:26.366Z,18.80
2019-03-01T05:02:56.828Z,18.87
2019-03-01T05:05:26.661Z,18.97
2019-03-01T05:07:56.291Z,23.53
2019-03-01T05:10:26.005Z,19.27
2019-03-01T05:12:55.948Z,18.47
2019-03-01T05:15:28.941Z,19.10
2019-03-01T05:18:02.546Z,20.77
2019-03-01T05:21:21.228Z,19.60
2019-03-01T05:27:28.207Z,20.30
2019-03-01T05:29:57.708Z,20.13
2019-03-01T05:32:27.354Z,21.30
2019-03-01T05:34:56.806Z,21.57
2019-03-01T05:37:26.377Z,20.83
2019-03-01T05:39:56.129Z,20.60
2019-03-01T05:42:25.708Z,20.80
2019-03-01T05:44:56.511Z,21.27
2019-03-01T05:47:25.948Z,20.17
2019-03-01T05:49:59.983Z,21.60
2019-03-01T05:52:29.509Z,21.27
2019-03-01T05:54:59.396Z,20.77
2019-03-01T05:57:28.864Z,21.60
2019-03-01T05:59:59.587Z,22.83
2019-03-01T06:02:54.294Z,20.37
2019-03-01T06:05:39.676Z,21.87
2019-03-01T06:08:35.001Z,29.05
2019-03-01T06:11:28.634Z,22.77
2019-03-01T06:14:22.806Z,20.60
2019-03-01T06:17:36.629Z,22.30
2019-03-01T06:20:46.804Z,29.55
2019-03-01T06:24:11.680Z,21.93
2019-03-01T06:27:09.945Z,23.23
2019-03-01T06:30:27.024Z,21.00
2019-03-01T06:33:30.339Z,21.57
2019-03-01T06:36:15.807Z,22.87
2019-03-01T06:39:41.627Z,20.40
2019-03-01T06:42:57.654Z,20.60
2019-03-01T06:46:26.005Z,20.80
2019-03-01T06:49:17.081Z,21.60
2019-03-01T06:51:46.642Z,22.10
2019-03-01T06:54:16.057Z,20.97
2019-03-01T06:56:45.563Z,22.03
2019-03-01T06:59:15.036Z,26.30
2019-03-01T07:01:47.682Z,24.90
2019-03-01T07:04:20.375Z,23.20
2019-03-01T07:06:49.830Z,26.13
2019-03-01T07:09:19.212Z,23.43
2019-03-01T07:11:48.576Z,23.43
2019-03-01T07:14:17.964Z,22.17
2019-03-01T07:16:47.365Z,23.17
2019-03-01T07:19:16.718Z,22.93
2019-03-01T07:21:46.071Z,21.43
2019-03-01T07:24:15.605Z,22.73
2019-03-01T07:26:45.043Z,20.67
2019-03-01T07:29:14.500Z,22.93
2019-03-01T07:31:43.850Z,20.47
2019-03-01T07:34:13.221Z,24.53
2019-03-01T07:36:42.556Z,23.17
2019-03-01T07:39:11.988Z,21.13
2019-03-01T07:41:41.439Z,23.20
2019-03-01T07:44:10.867Z,25.27
2019-03-01T07:46:40.205Z,21.77
2019-03-01T07:49:09.741Z,20.37
2019-03-01T07:51:39.116Z,23.73
2019-03-01T07:54:08.525Z,22.47
2019-03-01T07:56:39.949Z,23.47
2019-03-01T07:59:09.041Z,28.13
2019-03-01T08:01:38.463Z,25.00
2019-03-01T08:04:07.910Z,26.73
2019-03-01T08:06:37.324Z,21.13
2019-03-01T08:09:12.948Z,28.03
2019-03-01T08:11:42.318Z,24.90
2019-03-01T08:14:12.108Z,27.23
2019-03-01T08:16:42.847Z,23.47
2019-03-01T08:19:12.156Z,22.47
2019-03-01T08:21:42.650Z,24.73
2019-03-01T08:24:13.540Z,26.40
2019-03-01T08:26:43.384Z,27.83
2019-03-01T08:29:14.557Z,28.90
2019-03-01T08:31:43.921Z,25.97
2019-03-01T08:34:14.489Z,25.13
2019-03-01T08:36:44.435Z,27.87
2019-03-01T08:39:15.625Z,29.00
2019-03-01T08:41:45.392Z,30.63
2019-03-01T08:44:19.493Z,30.50
2019-03-01T08:46:47.354Z,27.13
2019-03-01T08:49:19.495Z,29.00
2019-03-01T08:51:48.907Z,28.03
2019-03-01T08:54:19.204Z,31.63
2019-03-01T08:56:50.255Z,27.23
2019-03-01T08:59:20.135Z,29.07
2019-03-01T09:01:49.522Z,31.77
2019-03-01T09:04:21.610Z,30.10
2019-03-01T09:06:53.211Z,32.40
2019-03-01T09:09:24.981Z,32.03
2019-03-01T09:11:57.147Z,32.80
2019-03-01T09:14:27.510Z,32.40
2019-03-01T09:16:57.482Z,32.83
2019-03-01T09:41:12.524Z,34.97
2019-03-01T09:44:08.773Z,34.07
2019-03-01T09:55:53.149Z,31.17
2019-03-01T10:03:35.768Z,32.27
2019-03-01T11:05:53.503Z,11.37
2019-03-01T11:26:44.543Z,11.67
2019-03-01T11:33:15.933Z,10.63
2019-03-01T11:36:17.650Z,11.00
2019-03-01T11:39:07.215Z,12.67
2019-03-01T12:22:35.404Z,11.83
2019-03-01T12:25:32.469Z,17.67
2019-03-01T12:28:02.139Z,13.13
2019-03-01T12:30:53.537Z,11.70
2019-03-01T12:33:26.512Z,13.37
2019-03-01T12:35:59.007Z,11.43
2019-03-01T12:38:28.765Z,12.40
2019-03-01T12:40:58.841Z,12.10
2019-03-01T12:43:28.584Z,11.03
2019-03-01T12:45:58.354Z,10.90
2019-03-01T12:48:28.027Z,11.37
2019-03-01T12:50:57.748Z,12.33
2019-03-01T12:53:27.342Z,12.70
2019-03-01T12:55:56.856Z,10.27
2019-03-01T12:58:26.428Z,10.13
2019-03-01T13:00:56.687Z,9.80
2019-03-01T13:03:26.562Z,10.60
2019-03-01T13:05:56.144Z,8.83
2019-03-01T13:08:28.708Z,8.53
2019-03-01T13:10:58.364Z,8.87
2019-03-01T13:13:28.786Z,9.33
2019-03-01T13:15:58.457Z,10.20
2019-03-01T13:18:29.335Z,9.23
2019-03-01T13:20:59.019Z,13.13
2019-03-01T13:23:29.421Z,8.10
2019-03-01T13:25:59.183Z,8.70
2019-03-01T13:28:30.087Z,9.00
2019-03-01T13:30:59.900Z,9.00
2019-03-01T13:33:29.462Z,8.63
2019-03-01T13:36:00.056Z,7.80
2019-03-01T13:38:33.908Z,8.20
2019-03-01T13:41:03.670Z,7.20
2019-03-01T13:43:34.484Z,7.73
2019-03-01T13:46:04.186Z,7.03
2019-03-01T13:48:34.482Z,7.27
2019-03-01T13:51:04.363Z,7.07
2019-03-01T13:53:34.351Z,6.27
2019-03-01T13:56:04.027Z,9.57
2019-03-01T13:58:34.651Z,10.20
2019-03-01T14:01:05.794Z,7.50
2019-03-01T14:03:35.537Z,7.80
2019-03-01T14:06:05.243Z,6.80
2019-03-01T14:08:34.800Z,6.73
2019-03-01T14:11:04.459Z,6.17
2019-03-01T14:13:34.105Z,7.70
2019-03-01T14:16:04.065Z,6.00
2019-03-01T14:18:36.781Z,6.27
2019-03-01T14:21:04.997Z,4.97
2019-03-01T14:23:34.447Z,5.63
2019-03-01T14:26:03.909Z,5.67
2019-03-01T14:28:33.848Z,5.60
2019-03-01T14:31:04.067Z,4.60
2019-03-01T14:33:34.683Z,4.63
2019-03-01T14:36:04.325Z,4.93
2019-03-01T14:38:34.200Z,3.87
2019-03-01T14:41:03.801Z,4.20
2019-03-01T14:43:33.390Z,4.43
2019-03-01T14:46:03.281Z,4.27
2019-03-01T14:48:32.864Z,4.87
2019-03-01T14:51:02.424Z,7.73
2019-03-01T14:53:34.718Z,6.23
2019-03-01T14:56:10.755Z,5.53
2019-03-01T14:58:48.204Z,4.97
2019-03-01T15:01:26.853Z,4.30
2019-03-01T15:03:56.682Z,3.77
2019-03-01T15:06:26.175Z,3.40
2019-03-01T15:08:55.724Z,4.20
2019-03-01T15:11:25.099Z,4.00
2019-03-01T15:13:55.634Z,5.03
2019-03-01T15:16:25.144Z,5.37
2019-03-01T15:18:54.497Z,4.43
2019-03-01T15:21:23.879Z,4.00
2019-03-01T15:23:56.192Z,4.77
2019-03-01T15:26:26.685Z,3.30
2019-03-01T15:28:58.582Z,3.53
2019-03-01T15:31:27.549Z,3.03
2019-03-01T15:33:57.366Z,3.47
2019-03-01T15:36:26.939Z,2.77
2019-03-01T15:38:56.465Z,3.57
2019-03-01T15:41:26.223Z,3.00
2019-03-01T15:43:55.599Z,3.63
2019-03-01T15:46:25.020Z,3.77
2019-03-01T15:48:54.428Z,3.90
2019-03-01T15:51:23.892Z,3.40
2019-03-01T15:53:53.359Z,4.20
2019-03-01T15:56:22.902Z,4.17
2019-03-01T15:58:52.263Z,4.20
2019-03-01T16:01:21.658Z,3.87
2019-03-01T16:03:54.076Z,3.20
2019-03-01T16:06:22.423Z,2.97
2019-03-01T16:08:51.864Z,2.73
2019-03-01T16:11:21.263Z,2.83
2019-03-01T16:13:50.739Z,4.43
2019-03-01T16:16:20.338Z,3.27
2019-03-01T16:18:49.999Z,3.07
2019-03-01T16:21:19.723Z,3.50
2019-03-01T16:23:49.456Z,5.10
2019-03-01T16:26:19.075Z,4.10
2019-03-01T16:28:48.640Z,3.40
2019-03-01T16:31:18.005Z,4.50
2019-03-01T16:33:47.433Z,4.00
2019-03-01T16:36:26.453Z,4.20
2019-03-01T16:38:56.506Z,3.43
2019-03-01T16:41:26.126Z,3.40
2019-03-01T16:43:55.637Z,4.13
2019-03-01T16:46:25.229Z,2.67
2019-03-01T16:48:54.716Z,3.23
2019-03-01T16:51:24.468Z,2.70
2019-03-01T16:53:54.170Z,3.30
2019-03-01T16:56:23.766Z,3.22
2019-03-01T16:58:53.602Z,3.03
2019-03-01T17:01:26.067Z,3.00
2019-03-01T17:03:54.533Z,3.90
2019-03-01T17:06:23.983Z,5.63
2019-03-01T17:08:53.453Z,4.23
2019-03-01T17:11:22.854Z,2.83
2019-03-01T17:13:52.397Z,2.90
2019-03-01T17:16:23.744Z,3.37
2019-03-01T17:18:52.943Z,2.80
2019-03-01T17:21:22.371Z,2.53
2019-03-01T17:23:51.745Z,2.33
2019-03-01T17:26:21.143Z,2.70
2019-03-01T17:28:50.970Z,2.67
2019-03-01T17:31:23.094Z,2.87
2019-03-01T17:33:51.614Z,2.67
2019-03-01T17:36:20.994Z,2.60
2019-03-01T17:38:50.404Z,3.13
2019-03-01T17:41:20.022Z,2.80
2019-03-01T17:43:49.708Z,3.90
2019-03-01T17:46:19.433Z,2.60
2019-03-01T17:48:48.981Z,3.13
2019-03-01T17:51:21.013Z,2.90
2019-03-01T17:53:50.020Z,3.93
2019-03-01T17:56:21.966Z,4.87
2019-03-01T17:58:51.158Z,3.10
2019-03-01T18:01:20.658Z,3.17
2019-03-01T18:03:50.146Z,3.93
2019-03-01T18:06:19.687Z,3.33
2019-03-01T18:08:49.410Z,3.40
2019-03-01T18:11:19.190Z,3.43
2019-03-01T18:13:49.177Z,3.30
2019-03-01T18:16:21.934Z,5.03
2019-03-01T18:18:52.851Z,5.13
2019-03-01T18:21:21.326Z,4.47
2019-03-01T18:23:51.517Z,7.33
2019-03-01T18:26:22.973Z,7.60
2019-03-01T18:28:53.293Z,5.57
2019-03-01T18:31:23.119Z,5.93
2019-03-01T18:33:53.791Z,4.57
2019-03-01T18:36:24.472Z,4.10
2019-03-01T18:38:54.188Z,3.43
2019-03-01T18:41:24.182Z,2.77
2019-03-01T18:43:55.221Z,2.77
2019-03-01T18:46:33.875Z,2.90
2019-03-01T18:49:03.479Z,3.75
2019-03-01T18:51:32.949Z,3.10
2019-03-01T18:54:03.986Z,2.67
2019-03-01T18:56:33.992Z,3.73
2019-03-01T18:59:03.498Z,2.87
2019-03-01T19:01:33.027Z,3.13
2019-03-01T19:04:02.501Z,3.40
2019-03-01T19:06:32.042Z,3.60
2019-03-01T19:09:01.471Z,3.60
2019-03-01T19:11:30.882Z,3.53
2019-03-01T19:14:01.909Z,4.07
2019-03-01T19:16:31.886Z,3.60
2019-03-01T19:19:01.466Z,3.50
2019-03-01T19:21:30.997Z,4.33
2019-03-01T19:24:00.523Z,3.57
2019-03-01T19:26:30.154Z,3.40
2019-03-01T19:29:02.670Z,3.07
2019-03-01T19:31:30.984Z,2.60
2019-03-01T19:34:00.498Z,2.33
2019-03-01T19:36:30.243Z,2.90
2019-03-01T19:39:00.386Z,3.07
2019-03-01T19:41:30.911Z,2.50
2019-03-01T19:44:00.331Z,2.67
2019-03-01T19:46:29.818Z,2.83
2019-03-01T19:48:59.306Z,2.70
2019-03-01T19:51:29.256Z,2.77
2019-03-01T19:54:01.226Z,2.87
2019-03-01T19:56:30.512Z,3.20
2019-03-01T19:59:00.238Z,3.43
2019-03-01T20:01:29.662Z,3.50
2019-03-01T20:04:01.231Z,3.20
2019-03-01T20:06:30.631Z,5.13
2019-03-01T20:09:01.625Z,3.20
2019-03-01T20:11:31.362Z,2.60
2019-03-01T20:14:00.859Z,3.20
2019-03-01T20:16:30.471Z,2.90
2019-03-01T20:19:00.204Z,3.47
2019-03-01T20:21:29.691Z,3.13
2019-03-01T20:24:01.858Z,3.03
2019-03-01T20:26:41.862Z,3.63
2019-03-01T20:29:11.737Z,2.93
2019-03-01T20:31:41.591Z,3.47
2019-03-01T20:34:11.139Z,3.37
2019-03-01T20:36:43.217Z,7.53
2019-03-01T20:39:15.447Z,5.37
2019-03-01T20:41:46.398Z,4.70
2019-03-01T20:44:18.691Z,3.83
2019-03-01T20:46:46.461Z,4.23
2019-03-01T20:49:15.992Z,3.43
2019-03-01T20:51:45.706Z,4.13
2019-03-01T20:54:15.194Z,3.33
2019-03-01T20:56:48.043Z,3.67
2019-03-01T20:59:16.243Z,3.77
2019-03-01T21:01:45.662Z,4.03
2019-03-01T21:04:15.390Z,3.23
2019-03-01T21:06:44.837Z,3.67
2019-03-01T21:09:14.321Z,4.20
2019-03-01T21:11:44.037Z,3.80
2019-03-01T21:14:13.556Z,3.50
2019-03-01T21:16:44.792Z,3.13
2019-03-01T21:19:14.071Z,4.07
2019-03-01T21:21:43.499Z,3.20
2019-03-01T21:24:12.921Z,3.30
2019-03-01T21:26:42.462Z,3.10
2019-03-01T21:29:12.435Z,3.30
2019-03-01T21:31:42.843Z,2.93
2019-03-01T21:34:12.193Z,3.47
2019-03-01T21:36:41.554Z,2.40
2019-03-01T21:39:11.271Z,2.83
2019-03-01T21:41:41.577Z,2.70
2019-03-01T21:44:13.598Z,2.30
2019-03-01T21:46:43.358Z,2.67
2019-03-01T21:49:16.281Z,2.87
2019-03-01T21:51:46.259Z,2.13
2019-03-01T21:54:16.453Z,2.63
2019-03-01T21:56:55.983Z,2.10
2019-03-01T21:59:18.559Z,2.40
2019-03-01T22:01:48.030Z,1.90
2019-03-01T22:04:17.446Z,2.00
2019-03-01T22:06:47.587Z,2.17
2019-03-01T22:09:20.695Z,2.20
2019-03-01T22:11:50.135Z,2.20
2019-03-01T22:14:19.519Z,2.07
2019-03-01T22:16:48.840Z,1.90
2019-03-01T22:19:18.183Z,2.10
2019-03-01T22:21:47.518Z,2.27
2019-03-01T22:24:16.869Z,2.40
2019-03-01T22:26:46.574Z,1.90
2019-03-01T22:29:17.291Z,2.13
2019-03-01T22:31:46.732Z,1.70
2019-03-01T22:34:16.055Z,1.67
2019-03-01T22:36:45.422Z,1.70
2019-03-01T22:39:16.680Z,1.77
2019-03-01T22:41:45.901Z,1.73
2019-03-01T22:44:15.267Z,1.70
2019-03-01T22:46:44.680Z,1.90
2019-03-01T22:49:14.057Z,1.60
2019-03-01T22:51:43.460Z,1.40
2019-03-01T22:54:14.602Z,1.73
2019-03-01T22:56:44.600Z,1.73
2019-03-01T22:59:14.967Z,1.60
2019-03-01T23:01:46.356Z,1.83
2019-03-01T23:04:15.743Z,2.23
2019-03-01T23:06:47.547Z,1.60
2019-03-01T23:09:17.173Z,1.73
2019-03-01T23:11:46.569Z,1.90
2019-03-01T23:14:15.945Z,2.10
2019-03-01T23:16:45.294Z,1.80
2019-03-01T23:19:16.168Z,2.23
2019-03-01T23:21:45.767Z,1.90
2019-03-01T23:24:15.128Z,2.10
2019-03-01T23:26:44.577Z,2.77
2019-03-01T23:29:15.545Z,2.30
2019-03-01T23:31:45.179Z,2.73
2019-03-01T23:34:14.542Z,2.60
2019-03-01T23:36:43.925Z,2.40
2019-03-01T23:39:13.330Z,2.30
2019-03-01T23:41:43.454Z,2.10
2019-03-01T23:44:13.809Z,2.20
2019-03-01T23:46:43.161Z,2.40
2019-03-01T23:49:12.615Z,2.30
2019-03-01T23:51:42.503Z,2.33
2019-03-01T23:54:13.008Z,3.00
2019-03-01T23:56:42.409Z,4.13
2019-03-01T23:59:11.792Z,2.57
